Kansimba Airport


Codes: FZRK/
Name: Kansimba Airport
City: Kansimba
Country: Congo [DRC]
Elevation: 5413 ft.

Photos at Kansimba Airport


   Photos courtesy of SpottingLog. You can add your own sightings and photos by signing up for a free trial today.



No photos found.

Weather at Kansimba Airport


Time (UTC)DescriptionTempratureWindCloud coverageVisibilityPressureHumidity
16-Jun-2024 12:00Few Clouds25°C4 mph, S14%10000m1014hPa31%
16-Jun-2024 15:00Scattered Clouds23°C4 mph, S40%10000m1013hPa37%
16-Jun-2024 18:00Broken Clouds15°C2 mph, SE60%10000m1016hPa61%
16-Jun-2024 21:00Scattered Clouds14°C2 mph, SE48%10000m1017hPa61%
17-Jun-2024 00:00Broken Clouds13°C4 mph, SE72%10000m1016hPa56%
17-Jun-2024 03:00Scattered Clouds12°C2 mph, SE28%10000m1017hPa55%
17-Jun-2024 06:00Few Clouds17°C2 mph, E17%10000m1017hPa43%
17-Jun-2024 09:00Clear Sky25°C4 mph, NE0%10000m1015hPa32%
17-Jun-2024 12:00Clear Sky28°C0 mph, NE2%10000m1011hPa28%
17-Jun-2024 15:00Few Clouds24°C2 mph, S21%10000m1012hPa38%
17-Jun-2024 18:00Scattered Clouds17°C2 mph, SE29%10000m1017hPa57%
17-Jun-2024 21:00Few Clouds15°C2 mph, SE23%10000m1017hPa61%
18-Jun-2024 00:00Few Clouds14°C2 mph, SE12%10000m1015hPa60%
18-Jun-2024 03:00Clear Sky13°C2 mph, SE0%10000m1016hPa63%
18-Jun-2024 06:00Clear Sky18°C4 mph, SE1%10000m1017hPa46%
18-Jun-2024 09:00Clear Sky26°C4 mph, E4%10000m1015hPa30%
18-Jun-2024 12:00Clear Sky29°C2 mph, NE5%10000m1011hPa24%
18-Jun-2024 15:00Clear Sky25°C2 mph, NE5%10000m1012hPa36%
18-Jun-2024 18:00Clear Sky17°C2 mph, SE9%10000m1016hPa54%
18-Jun-2024 21:00Clear Sky16°C2 mph, SE0%10000m1017hPa60%
19-Jun-2024 00:00Clear Sky15°C2 mph, SE0%10000m1015hPa61%
19-Jun-2024 03:00Clear Sky14°C2 mph, SE0%10000m1015hPa62%
19-Jun-2024 06:00Clear Sky19°C4 mph, SE1%10000m1016hPa46%
19-Jun-2024 09:00Broken Clouds26°C4 mph, E71%10000m1014hPa32%
19-Jun-2024 12:00Overcast Clouds28°C4 mph, NE86%10000m1011hPa28%
19-Jun-2024 15:00Overcast Clouds24°C7 mph, NE98%10000m1012hPa36%
19-Jun-2024 18:00Overcast Clouds18°C2 mph, SE96%10000m1015hPa46%
19-Jun-2024 21:00Broken Clouds18°C2 mph, SE65%10000m1016hPa45%
20-Jun-2024 00:00Scattered Clouds16°C2 mph, SE44%10000m1015hPa53%
20-Jun-2024 03:00Clear Sky15°C2 mph, SE5%10000m1015hPa58%
20-Jun-2024 06:00Scattered Clouds19°C4 mph, E26%10000m1017hPa49%
20-Jun-2024 09:00Broken Clouds26°C7 mph, E59%10000m1015hPa34%
20-Jun-2024 12:00Broken Clouds27°C7 mph, NE70%10000m1012hPa29%
20-Jun-2024 15:00Broken Clouds24°C4 mph, NE54%10000m1013hPa38%
20-Jun-2024 18:00Broken Clouds20°C2 mph, E70%10000m1015hPa43%
20-Jun-2024 21:00Few Clouds17°C2 mph, SE21%10000m1016hPa50%
21-Jun-2024 00:00Few Clouds16°C2 mph, E16%10000m1016hPa55%
21-Jun-2024 03:00Few Clouds15°C4 mph, NE12%10000m1017hPa63%
21-Jun-2024 06:00Clear Sky19°C7 mph, NE6%10000m1018hPa60%
21-Jun-2024 09:00Clear Sky26°C7 mph, NE1%10000m1016hPa36%